sensor_id;sensor_type;location;lat;lon;timestamp;pressure;altitude;pressure_sealevel;temperature;humidity
43711;BME280;29309;42.682;23.372;2022-12-18T00:01:43;95922.50;;;7.20;87.17
43711;BME280;29309;42.682;23.372;2022-12-18T00:04:16;95920.88;;;7.17;87.15
43711;BME280;29309;42.682;23.372;2022-12-18T00:06:43;95928.00;;;7.11;87.03
43711;BME280;29309;42.682;23.372;2022-12-18T00:09:10;95927.88;;;7.09;87.19
43711;BME280;29309;42.682;23.372;2022-12-18T00:11:35;95936.72;;;7.07;87.01
43711;BME280;29309;42.682;23.372;2022-12-18T00:14:00;95933.34;;;6.99;86.90
43711;BME280;29309;42.682;23.372;2022-12-18T00:16:28;95938.41;;;6.93;87.16
43711;BME280;29309;42.682;23.372;2022-12-18T00:18:55;95929.25;;;6.90;87.25
43711;BME280;29309;42.682;23.372;2022-12-18T00:21:21;95937.97;;;6.87;87.22
43711;BME280;29309;42.682;23.372;2022-12-18T00:23:48;95941.88;;;6.84;87.51
43711;BME280;29309;42.682;23.372;2022-12-18T00:26:16;95946.38;;;6.79;86.75
43711;BME280;29309;42.682;23.372;2022-12-18T00:28:43;95951.56;;;6.75;86.72
43711;BME280;29309;42.682;23.372;2022-12-18T00:31:10;95957.81;;;6.76;88.03
43711;BME280;29309;42.682;23.372;2022-12-18T00:33:37;95959.25;;;6.77;87.03
43711;BME280;29309;42.682;23.372;2022-12-18T00:36:26;95961.56;;;6.71;87.29
43711;BME280;29309;42.682;23.372;2022-12-18T00:38:54;95963.88;;;6.65;86.49
43711;BME280;29309;42.682;23.372;2022-12-18T00:41:20;95959.50;;;6.62;86.67
43711;BME280;29309;42.682;23.372;2022-12-18T00:44:06;95958.91;;;6.63;86.99
43711;BME280;29309;42.682;23.372;2022-12-18T00:46:31;95964.84;;;6.60;87.25
43711;BME280;29309;42.682;23.372;2022-12-18T00:48:57;95964.13;;;6.59;87.34
43711;BME280;29309;42.682;23.372;2022-12-18T00:51:23;95967.47;;;6.58;87.08
43711;BME280;29309;42.682;23.372;2022-12-18T00:53:49;95967.72;;;6.52;86.59
43711;BME280;29309;42.682;23.372;2022-12-18T00:56:15;95960.34;;;6.55;86.25
43711;BME280;29309;42.682;23.372;2022-12-18T00:58:40;95975.44;;;6.54;85.68
43711;BME280;29309;42.682;23.372;2022-12-18T01:01:06;95977.72;;;6.48;86.26
43711;BME280;29309;42.682;23.372;2022-12-18T01:03:32;95980.63;;;6.50;86.30
43711;BME280;29309;42.682;23.372;2022-12-18T01:05:58;95979.47;;;6.53;86.33
43711;BME280;29309;42.682;23.372;2022-12-18T01:08:23;95980.63;;;6.50;85.40
43711;BME280;29309;42.682;23.372;2022-12-18T01:10:49;95985.53;;;6.41;85.94
43711;BME280;29309;42.682;23.372;2022-12-18T01:13:14;95989.00;;;6.42;85.71
43711;BME280;29309;42.682;23.372;2022-12-18T01:15:40;95990.16;;;6.39;85.96
43711;BME280;29309;42.682;23.372;2022-12-18T01:18:06;95994.78;;;6.36;85.56
43711;BME280;29309;42.682;23.372;2022-12-18T01:20:32;95989.38;;;6.29;85.62
43711;BME280;29309;42.682;23.372;2022-12-18T01:22:57;95994.16;;;6.28;85.64
43711;BME280;29309;42.682;23.372;2022-12-18T01:28:07;95999.25;;;6.32;85.25
43711;BME280;29309;42.682;23.372;2022-12-18T01:30:32;95999.34;;;6.24;85.94
43711;BME280;29309;42.682;23.372;2022-12-18T01:32:57;95993.66;;;6.22;85.68
43711;BME280;29309;42.682;23.372;2022-12-18T01:35:23;95992.47;;;6.16;85.26
43711;BME280;29309;42.682;23.372;2022-12-18T01:37:48;96001.88;;;6.13;85.14
43711;BME280;29309;42.682;23.372;2022-12-18T01:40:14;96003.91;;;6.12;85.15
43711;BME280;29309;42.682;23.372;2022-12-18T01:42:39;96011.84;;;6.08;85.36
43711;BME280;29309;42.682;23.372;2022-12-18T01:47:59;96010.63;;;6.02;85.76
43711;BME280;29309;42.682;23.372;2022-12-18T01:52:58;96017.59;;;5.85;85.52
43711;BME280;29309;42.682;23.372;2022-12-18T01:55:28;96015.06;;;5.80;85.80
43711;BME280;29309;42.682;23.372;2022-12-18T01:57:57;96020.84;;;5.74;86.13
43711;BME280;29309;42.682;23.372;2022-12-18T02:00:25;96019.78;;;5.70;86.07
43711;BME280;29309;42.682;23.372;2022-12-18T02:02:51;96019.03;;;5.69;86.50
43711;BME280;29309;42.682;23.372;2022-12-18T02:18:41;96042.28;;;5.59;85.99
43711;BME280;29309;42.682;23.372;2022-12-18T02:24:31;96040.47;;;5.54;86.22
43711;BME280;29309;42.682;23.372;2022-12-18T02:27:03;96052.97;;;5.55;86.05
43711;BME280;29309;42.682;23.372;2022-12-18T02:29:51;96037.41;;;5.50;86.21
43711;BME280;29309;42.682;23.372;2022-12-18T02:32:20;96052.28;;;5.46;85.62
43711;BME280;29309;42.682;23.372;2022-12-18T02:34:49;96045.91;;;5.44;85.57
43711;BME280;29309;42.682;23.372;2022-12-18T02:37:17;96045.75;;;5.42;85.89
43711;BME280;29309;42.682;23.372;2022-12-18T02:39:45;96051.97;;;5.42;85.65
43711;BME280;29309;42.682;23.372;2022-12-18T02:42:12;96048.72;;;5.36;85.61
43711;BME280;29309;42.682;23.372;2022-12-18T02:44:49;96062.13;;;5.32;86.38
43711;BME280;29309;42.682;23.372;2022-12-18T02:47:16;96059.38;;;5.32;86.62
43711;BME280;29309;42.682;23.372;2022-12-18T02:55:18;96066.06;;;5.22;86.54
43711;BME280;29309;42.682;23.372;2022-12-18T02:57:53;96062.44;;;5.19;86.33
43711;BME280;29309;42.682;23.372;2022-12-18T03:00:22;96051.81;;;5.16;86.87
43711;BME280;29309;42.682;23.372;2022-12-18T03:02:50;96063.22;;;5.12;87.09
43711;BME280;29309;42.682;23.372;2022-12-18T03:05:27;96069.06;;;5.16;86.93
43711;BME280;29309;42.682;23.372;2022-12-18T03:08:03;96076.25;;;5.12;86.89
43711;BME280;29309;42.682;23.372;2022-12-18T03:10:35;96076.47;;;5.06;86.85
43711;BME280;29309;42.682;23.372;2022-12-18T03:13:14;96085.28;;;5.05;87.19
43711;BME280;29309;42.682;23.372;2022-12-18T03:15:49;96084.94;;;5.01;87.45
43711;BME280;29309;42.682;23.372;2022-12-18T03:18:20;96091.53;;;5.05;87.25
43711;BME280;29309;42.682;23.372;2022-12-18T03:20:49;96088.78;;;5.05;87.46
43711;BME280;29309;42.682;23.372;2022-12-18T03:23:21;96085.84;;;5.03;87.27
43711;BME280;29309;42.682;23.372;2022-12-18T03:25:51;96084.56;;;5.04;87.05
43711;BME280;29309;42.682;23.372;2022-12-18T03:28:21;96095.75;;;5.06;86.82
43711;BME280;29309;42.682;23.372;2022-12-18T03:30:50;96095.56;;;5.04;87.24
43711;BME280;29309;42.682;23.372;2022-12-18T03:33:24;96101.41;;;5.08;86.55
43711;BME280;29309;42.682;23.372;2022-12-18T03:35:51;96105.44;;;5.07;86.66
43711;BME280;29309;42.682;23.372;2022-12-18T03:38:17;96107.25;;;5.12;86.82
43711;BME280;29309;42.682;23.372;2022-12-18T03:46:13;96123.75;;;5.12;86.37
43711;BME280;29309;42.682;23.372;2022-12-18T03:48:46;96124.16;;;5.09;85.69
43711;BME280;29309;42.682;23.372;2022-12-18T03:51:26;96126.00;;;5.06;84.93
43711;BME280;29309;42.682;23.372;2022-12-18T03:53:58;96131.38;;;4.96;84.78
43711;BME280;29309;42.682;23.372;2022-12-18T03:56:28;96138.53;;;4.92;84.94
43711;BME280;29309;42.682;23.372;2022-12-18T03:58:55;96139.28;;;4.92;84.88
43711;BME280;29309;42.682;23.372;2022-12-18T04:01:28;96142.94;;;4.95;84.54
43711;BME280;29309;42.682;23.372;2022-12-18T04:03:56;96137.44;;;4.95;83.68
43711;BME280;29309;42.682;23.372;2022-12-18T04:06:24;96136.53;;;4.92;83.97
43711;BME280;29309;42.682;23.372;2022-12-18T04:08:50;96143.09;;;4.97;83.30
43711;BME280;29309;42.682;23.372;2022-12-18T04:11:16;96139.66;;;4.89;83.44
43711;BME280;29309;42.682;23.372;2022-12-18T04:13:42;96147.91;;;4.89;83.93
43711;BME280;29309;42.682;23.372;2022-12-18T04:16:08;96161.13;;;4.90;83.36
43711;BME280;29309;42.682;23.372;2022-12-18T04:18:34;96159.09;;;4.91;83.67
43711;BME280;29309;42.682;23.372;2022-12-18T04:21:00;96164.59;;;4.91;83.97
43711;BME280;29309;42.682;23.372;2022-12-18T04:23:26;96172.66;;;4.89;83.43
43711;BME280;29309;42.682;23.372;2022-12-18T04:25:51;96174.88;;;4.90;82.89
43711;BME280;29309;42.682;23.372;2022-12-18T04:28:17;96173.78;;;4.86;83.44
43711;BME280;29309;42.682;23.372;2022-12-18T04:30:43;96174.88;;;4.90;83.41
43711;BME280;29309;42.682;23.372;2022-12-18T04:33:12;96169.91;;;4.89;82.75
43711;BME280;29309;42.682;23.372;2022-12-18T04:35:39;96181.50;;;4.87;82.89
43711;BME280;29309;42.682;23.372;2022-12-18T04:38:06;96176.91;;;4.90;82.40
43711;BME280;29309;42.682;23.372;2022-12-18T04:40:32;96175.25;;;4.87;81.66
43711;BME280;29309;42.682;23.372;2022-12-18T04:42:57;96181.84;;;4.91;82.15
43711;BME280;29309;42.682;23.372;2022-12-18T04:45:22;96192.28;;;4.93;81.61
43711;BME280;29309;42.682;23.372;2022-12-18T04:47:48;96201.81;;;4.92;81.37
43711;BME280;29309;42.682;23.372;2022-12-18T04:50:13;96189.38;;;4.91;81.54
43711;BME280;29309;42.682;23.372;2022-12-18T04:52:39;96198.75;;;4.88;81.29
43711;BME280;29309;42.682;23.372;2022-12-18T04:55:04;96200.56;;;4.85;80.33
43711;BME280;29309;42.682;23.372;2022-12-18T04:57:30;96210.66;;;4.83;79.99
43711;BME280;29309;42.682;23.372;2022-12-18T04:59:55;96211.44;;;4.76;79.71
43711;BME280;29309;42.682;23.372;2022-12-18T05:02:21;96214.00;;;4.74;79.81
43711;BME280;29309;42.682;23.372;2022-12-18T05:04:46;96217.13;;;4.70;79.87
43711;BME280;29309;42.682;23.372;2022-12-18T05:07:11;96218.22;;;4.67;79.60
43711;BME280;29309;42.682;23.372;2022-12-18T05:09:37;96220.06;;;4.65;79.96
43711;BME280;29309;42.682;23.372;2022-12-18T05:12:02;96221.72;;;4.68;79.77
43711;BME280;29309;42.682;23.372;2022-12-18T05:14:28;96220.97;;;4.67;79.53
43711;BME280;29309;42.682;23.372;2022-12-18T05:16:54;96221.56;;;4.66;79.09
43711;BME280;29309;42.682;23.372;2022-12-18T05:19:20;96237.31;;;4.65;78.64
43711;BME280;29309;42.682;23.372;2022-12-18T05:21:45;96240.97;;;4.60;78.78
43711;BME280;29309;42.682;23.372;2022-12-18T05:24:10;96254.94;;;4.55;79.24
43711;BME280;29309;42.682;23.372;2022-12-18T05:26:36;96246.84;;;4.57;79.70
43711;BME280;29309;42.682;23.372;2022-12-18T05:29:02;96250.19;;;4.55;80.00
43711;BME280;29309;42.682;23.372;2022-12-18T05:31:27;96246.13;;;4.56;79.72
43711;BME280;29309;42.682;23.372;2022-12-18T05:33:53;96257.50;;;4.53;80.26
43711;BME280;29309;42.682;23.372;2022-12-18T05:36:19;96258.44;;;4.55;79.88
43711;BME280;29309;42.682;23.372;2022-12-18T05:38:44;96260.81;;;4.51;80.33
43711;BME280;29309;42.682;23.372;2022-12-18T05:41:10;96260.44;;;4.55;80.24
43711;BME280;29309;42.682;23.372;2022-12-18T05:43:37;96264.28;;;4.52;79.89
43711;BME280;29309;42.682;23.372;2022-12-18T05:46:07;96277.13;;;4.49;79.51
43711;BME280;29309;42.682;23.372;2022-12-18T05:48:33;96266.69;;;4.47;79.38
43711;BME280;29309;42.682;23.372;2022-12-18T05:51:05;96268.50;;;4.45;78.50
43711;BME280;29309;42.682;23.372;2022-12-18T05:53:31;96269.59;;;4.42;78.20
43711;BME280;29309;42.682;23.372;2022-12-18T05:56:00;96262.28;;;4.37;78.21
43711;BME280;29309;42.682;23.372;2022-12-18T05:58:26;96274.94;;;4.40;78.97
43711;BME280;29309;42.682;23.372;2022-12-18T06:00:52;96272.72;;;4.38;78.33
43711;BME280;29309;42.682;23.372;2022-12-18T06:03:17;96286.47;;;4.38;78.25
43711;BME280;29309;42.682;23.372;2022-12-18T06:05:44;96285.56;;;4.36;78.04
43711;BME280;29309;42.682;23.372;2022-12-18T06:08:11;96283.56;;;4.36;78.09
43711;BME280;29309;42.682;23.372;2022-12-18T06:10:37;96300.03;;;4.29;78.15
43711;BME280;29309;42.682;23.372;2022-12-18T06:13:04;96294.00;;;4.30;77.78
43711;BME280;29309;42.682;23.372;2022-12-18T06:15:29;96303.31;;;4.27;78.21
43711;BME280;29309;42.682;23.372;2022-12-18T06:17:55;96305.16;;;4.47;83.23
43711;BME280;29309;42.682;23.372;2022-12-18T06:20:20;96300.03;;;4.52;83.15
43711;BME280;29309;42.682;23.372;2022-12-18T06:22:46;96302.78;;;4.59;83.29
43711;BME280;29309;42.682;23.372;2022-12-18T06:25:11;96301.84;;;4.49;79.50
43711;BME280;29309;42.682;23.372;2022-12-18T06:27:37;96310.66;;;4.47;79.64
43711;BME280;29309;42.682;23.372;2022-12-18T06:30:03;96311.94;;;4.46;78.91
43711;BME280;29309;42.682;23.372;2022-12-18T06:32:29;96310.31;;;4.43;78.14
43711;BME280;29309;42.682;23.372;2022-12-18T06:34:54;96322.41;;;4.40;77.81
43711;BME280;29309;42.682;23.372;2022-12-18T06:37:20;96323.16;;;4.41;77.79
43711;BME280;29309;42.682;23.372;2022-12-18T06:39:46;96326.81;;;4.43;77.76
43711;BME280;29309;42.682;23.372;2022-12-18T06:42:11;96333.94;;;4.46;78.09
43711;BME280;29309;42.682;23.372;2022-12-18T06:44:37;96333.03;;;4.44;77.97
43711;BME280;29309;42.682;23.372;2022-12-18T06:47:02;96333.03;;;4.44;77.36
43711;BME280;29309;42.682;23.372;2022-12-18T06:49:28;96332.09;;;4.41;77.62
43711;BME280;29309;42.682;23.372;2022-12-18T06:51:53;96328.97;;;4.45;77.93
43711;BME280;29309;42.682;23.372;2022-12-18T06:54:19;96338.16;;;4.47;77.47
43711;BME280;29309;42.682;23.372;2022-12-18T06:56:47;96334.31;;;4.43;77.55
43711;BME280;29309;42.682;23.372;2022-12-18T06:59:13;96336.53;;;4.44;78.08
43711;BME280;29309;42.682;23.372;2022-12-18T07:01:40;96337.78;;;4.43;77.69
43711;BME280;29309;42.682;23.372;2022-12-18T07:04:05;96341.09;;;4.50;77.42
43711;BME280;29309;42.682;23.372;2022-12-18T07:06:31;96342.94;;;4.47;75.95
43711;BME280;29309;42.682;23.372;2022-12-18T07:08:56;96354.66;;;4.47;75.80
43711;BME280;29309;42.682;23.372;2022-12-18T07:11:22;96353.00;;;4.44;75.50
43711;BME280;29309;42.682;23.372;2022-12-18T07:13:47;96352.28;;;4.44;75.48
43711;BME280;29309;42.682;23.372;2022-12-18T07:16:18;96356.69;;;4.47;74.18
43711;BME280;29309;42.682;23.372;2022-12-18T07:18:44;96363.81;;;4.42;74.50
43711;BME280;29309;42.682;23.372;2022-12-18T07:21:12;96353.75;;;4.37;74.40
43711;BME280;29309;42.682;23.372;2022-12-18T07:23:38;96354.66;;;4.40;75.19
43711;BME280;29309;42.682;23.372;2022-12-18T07:26:08;96357.94;;;4.38;75.11
43711;BME280;29309;42.682;23.372;2022-12-18T07:28:35;96365.81;;;4.34;74.73
43711;BME280;29309;42.682;23.372;2022-12-18T07:31:12;96360.69;;;4.31;75.35
43711;BME280;29309;42.682;23.372;2022-12-18T07:33:38;96365.09;;;4.26;75.61
43711;BME280;29309;42.682;23.372;2022-12-18T07:36:05;96369.84;;;4.26;75.79
43711;BME280;29309;42.682;23.372;2022-12-18T07:38:33;96364.38;;;4.33;75.81
43711;BME280;29309;42.682;23.372;2022-12-18T07:41:07;96380.50;;;4.29;75.67
43711;BME280;29309;42.682;23.372;2022-12-18T07:43:34;96376.25;;;4.28;75.58
43711;BME280;29309;42.682;23.372;2022-12-18T07:46:00;96383.25;;;4.29;75.73
43711;BME280;29309;42.682;23.372;2022-12-18T07:48:25;96382.69;;;4.31;76.41
43711;BME280;29309;42.682;23.372;2022-12-18T07:50:51;96388.91;;;4.31;76.06
43711;BME280;29309;42.682;23.372;2022-12-18T07:53:17;96384.88;;;4.25;75.98
43711;BME280;29309;42.682;23.372;2022-12-18T07:55:42;96386.88;;;4.24;76.63
43711;BME280;29309;42.682;23.372;2022-12-18T07:58:08;96396.78;;;4.27;76.38
43711;BME280;29309;42.682;23.372;2022-12-18T08:00:34;96397.88;;;4.24;76.46
43711;BME280;29309;42.682;23.372;2022-12-18T08:03:00;96400.63;;;4.32;76.39
43711;BME280;29309;42.682;23.372;2022-12-18T08:05:26;96412.38;;;4.32;76.55
43711;BME280;29309;42.682;23.372;2022-12-18T08:07:51;96413.13;;;4.33;76.85
43711;BME280;29309;42.682;23.372;2022-12-18T08:10:17;96420.78;;;4.34;76.92
43711;BME280;29309;42.682;23.372;2022-12-18T08:12:50;96423.19;;;4.30;77.15
43711;BME280;29309;42.682;23.372;2022-12-18T08:15:35;96425.03;;;4.35;77.02
43711;BME280;29309;42.682;23.372;2022-12-18T08:18:00;96432.34;;;4.33;77.16
43711;BME280;29309;42.682;23.372;2022-12-18T08:20:26;96428.88;;;4.32;77.36
43711;BME280;29309;42.682;23.372;2022-12-18T08:22:51;96439.31;;;4.34;77.39
43711;BME280;29309;42.682;23.372;2022-12-18T08:25:17;96431.06;;;4.26;77.04
43711;BME280;29309;42.682;23.372;2022-12-18T08:27:42;96447.00;;;4.28;77.17
43711;BME280;29309;42.682;23.372;2022-12-18T08:30:08;96442.44;;;4.30;77.30
43711;BME280;29309;42.682;23.372;2022-12-18T08:32:34;96440.97;;;4.29;76.57
43711;BME280;29309;42.682;23.372;2022-12-18T08:34:59;96443.72;;;4.29;76.70
43711;BME280;29309;42.682;23.372;2022-12-18T08:37:25;96442.97;;;4.29;76.78
43711;BME280;29309;42.682;23.372;2022-12-18T08:39:50;96444.63;;;4.32;77.15
43711;BME280;29309;42.682;23.372;2022-12-18T08:42:16;96445.53;;;4.34;76.51
43711;BME280;29309;42.682;23.372;2022-12-18T08:45:19;96451.78;;;4.35;75.90
43711;BME280;29309;42.682;23.372;2022-12-18T08:47:45;96451.97;;;4.37;75.82
43711;BME280;29309;42.682;23.372;2022-12-18T08:50:10;96454.53;;;4.35;75.42
43711;BME280;29309;42.682;23.372;2022-12-18T08:52:37;96459.47;;;4.29;75.75
43711;BME280;29309;42.682;23.372;2022-12-18T08:55:03;96455.06;;;4.26;75.27
43711;BME280;29309;42.682;23.372;2022-12-18T08:57:28;96458.34;;;4.24;75.65
43711;BME280;29309;42.682;23.372;2022-12-18T08:59:54;96455.59;;;4.24;75.12
43711;BME280;29309;42.682;23.372;2022-12-18T09:02:19;96448.63;;;4.23;75.18
43711;BME280;29309;42.682;23.372;2022-12-18T09:04:47;96445.34;;;4.25;75.34
43711;BME280;29309;42.682;23.372;2022-12-18T09:07:12;96442.41;;;4.23;74.38
43711;BME280;29309;42.682;23.372;2022-12-18T09:09:38;96448.81;;;4.25;73.88
43711;BME280;29309;42.682;23.372;2022-12-18T09:12:03;96449.38;;;4.31;74.04
43711;BME280;29309;42.682;23.372;2022-12-18T09:14:29;96450.31;;;4.26;73.64
43711;BME280;29309;42.682;23.372;2022-12-18T09:16:54;96446.25;;;4.27;74.09
43711;BME280;29309;42.682;23.372;2022-12-18T09:19:19;96447.56;;;4.34;72.88
43711;BME280;29309;42.682;23.372;2022-12-18T09:21:45;96447.38;;;4.32;73.39
43711;BME280;29309;42.682;23.372;2022-12-18T09:24:14;96445.53;;;4.34;72.61
43711;BME280;29309;42.682;23.372;2022-12-18T09:26:40;96449.97;;;4.37;72.11
43711;BME280;29309;42.682;23.372;2022-12-18T09:29:06;96453.63;;;4.40;72.76
43711;BME280;29309;42.682;23.372;2022-12-18T09:31:33;96443.53;;;4.42;72.05
43711;BME280;29309;42.682;23.372;2022-12-18T09:33:59;96451.25;;;4.44;71.28
43711;BME280;29309;42.682;23.372;2022-12-18T09:36:24;96449.94;;;4.45;71.16
43711;BME280;29309;42.682;23.372;2022-12-18T09:38:50;96445.19;;;4.45;70.88
43711;BME280;29309;42.682;23.372;2022-12-18T09:41:44;96455.66;;;4.47;70.92
43711;BME280;29309;42.682;23.372;2022-12-18T09:46:51;96454.91;;;4.46;70.90
43711;BME280;29309;42.682;23.372;2022-12-18T09:49:22;96456.38;;;4.47;70.67
43711;BME280;29309;42.682;23.372;2022-12-18T09:52:34;96452.16;;;4.46;70.76
43711;BME280;29309;42.682;23.372;2022-12-18T09:57:45;96457.16;;;4.56;71.52
43711;BME280;29309;42.682;23.372;2022-12-18T10:00:21;96451.47;;;4.61;71.13
43711;BME280;29309;42.682;23.372;2022-12-18T10:02:47;96454.59;;;4.65;71.82
43711;BME280;29309;42.682;23.372;2022-12-18T10:08:22;96450.00;;;4.83;70.50
43711;BME280;29309;42.682;23.372;2022-12-18T10:10:52;96461.56;;;4.89;70.43
43711;BME280;29309;42.682;23.372;2022-12-18T10:22:44;96449.66;;;5.02;67.91
43711;BME280;29309;42.682;23.372;2022-12-18T10:25:20;96460.81;;;4.96;67.75
43711;BME280;29309;42.682;23.372;2022-12-18T10:27:47;96463.19;;;4.92;67.94
43711;BME280;29309;42.682;23.372;2022-12-18T10:30:19;96460.44;;;4.92;67.84
43711;BME280;29309;42.682;23.372;2022-12-18T10:32:45;96461.19;;;4.92;68.05
43711;BME280;29309;42.682;23.372;2022-12-18T10:38:25;96446.53;;;4.97;67.96
43711;BME280;29309;42.682;23.372;2022-12-18T10:40:57;96450.19;;;5.00;68.49
43711;BME280;29309;42.682;23.372;2022-12-18T10:43:35;96447.44;;;5.00;67.98
43711;BME280;29309;42.682;23.372;2022-12-18T10:48:50;96445.78;;;5.05;67.98
43711;BME280;29309;42.682;23.372;2022-12-18T10:54:00;96448.72;;;5.07;68.03
43711;BME280;29309;42.682;23.372;2022-12-18T10:56:28;96447.81;;;4.96;68.26
43711;BME280;29309;42.682;23.372;2022-12-18T10:59:09;96452.94;;;5.00;68.78
43711;BME280;29309;42.682;23.372;2022-12-18T11:01:57;96446.69;;;5.00;69.33
43711;BME280;29309;42.682;23.372;2022-12-18T11:04:32;96448.53;;;5.05;69.05
43711;BME280;29309;42.682;23.372;2022-12-18T11:09:37;96451.47;;;5.07;68.75
43711;BME280;29309;42.682;23.372;2022-12-18T11:12:23;96445.25;;;5.06;69.29
43711;BME280;29309;42.682;23.372;2022-12-18T11:14:51;96447.63;;;5.10;69.10
43711;BME280;29309;42.682;23.372;2022-12-18T11:17:31;96455.50;;;5.13;68.56
43711;BME280;29309;42.682;23.372;2022-12-18T11:20:26;96445.59;;;5.10;69.31
43711;BME280;29309;42.682;23.372;2022-12-18T11:22:57;96454.03;;;5.12;68.55
43711;BME280;29309;42.682;23.372;2022-12-18T11:25:24;96453.31;;;5.12;67.87
43711;BME280;29309;42.682;23.372;2022-12-18T11:27:56;96453.84;;;5.10;68.41
43711;BME280;29309;42.682;23.372;2022-12-18T11:30:30;96456.41;;;5.16;67.88
43711;BME280;29309;42.682;23.372;2022-12-18T11:33:06;96460.44;;;5.15;67.36
43711;BME280;29309;42.682;23.372;2022-12-18T11:38:23;96457.16;;;5.16;67.80
43711;BME280;29309;42.682;23.372;2022-12-18T11:40:58;96458.81;;;5.19;66.96
43711;BME280;29309;42.682;23.372;2022-12-18T11:43:29;96454.19;;;5.22;67.83
43711;BME280;29309;42.682;23.372;2022-12-18T11:46:02;96457.69;;;5.30;67.06
43711;BME280;29309;42.682;23.372;2022-12-18T11:48:44;96456.03;;;5.27;67.12
43711;BME280;29309;42.682;23.372;2022-12-18T11:51:22;96459.34;;;5.25;67.01
43711;BME280;29309;42.682;23.372;2022-12-18T11:53:51;96462.47;;;5.22;66.83
43711;BME280;29309;42.682;23.372;2022-12-18T11:56:39;96458.81;;;5.19;67.28
43711;BME280;29309;42.682;23.372;2022-12-18T11:59:37;96459.34;;;5.18;66.95
43711;BME280;29309;42.682;23.372;2022-12-18T12:07:33;96448.91;;;5.16;67.25
43711;BME280;29309;42.682;23.372;2022-12-18T12:23:42;96454.78;;;5.20;66.62
43711;BME280;29309;42.682;23.372;2022-12-18T12:26:38;96456.97;;;5.14;66.82
43711;BME280;29309;42.682;23.372;2022-12-18T12:37:37;96476.22;;;5.29;66.26
43711;BME280;29309;42.682;23.372;2022-12-18T12:40:04;96471.81;;;5.26;66.35
43711;BME280;29309;42.682;23.372;2022-12-18T12:42:41;96467.97;;;5.29;66.95
43711;BME280;29309;42.682;23.372;2022-12-18T12:45:36;96469.06;;;5.26;66.36
43711;BME280;29309;42.682;23.372;2022-12-18T12:48:04;96458.97;;;5.29;66.57
43711;BME280;29309;42.682;23.372;2022-12-18T12:50:34;96473.09;;;5.33;66.74
43711;BME280;29309;42.682;23.372;2022-12-18T12:53:01;96476.38;;;5.39;66.38
43711;BME280;29309;42.682;23.372;2022-12-18T12:55:32;96482.25;;;5.35;66.72
43711;BME280;29309;42.682;23.372;2022-12-18T12:58:05;96476.03;;;5.42;66.65
43711;BME280;29309;42.682;23.372;2022-12-18T13:00:59;96475.66;;;5.46;66.21
43711;BME280;29309;42.682;23.372;2022-12-18T13:09:09;96490.16;;;5.39;66.55
43711;BME280;29309;42.682;23.372;2022-12-18T13:11:42;96496.75;;;5.43;66.07
43711;BME280;29309;42.682;23.372;2022-12-18T13:14:32;96492.00;;;5.36;66.40
43711;BME280;29309;42.682;23.372;2022-12-18T13:17:34;96503.75;;;5.37;66.91
43711;BME280;29309;42.682;23.372;2022-12-18T13:20:07;96505.97;;;5.31;66.40
43711;BME280;29309;42.682;23.372;2022-12-18T13:22:36;96504.31;;;5.28;66.47
43711;BME280;29309;42.682;23.372;2022-12-18T13:25:29;96510.19;;;5.24;66.31
43711;BME280;29309;42.682;23.372;2022-12-18T13:28:08;96509.09;;;5.27;66.05
43711;BME280;29309;42.682;23.372;2022-12-18T13:36:01;96506.34;;;5.12;67.17
43711;BME280;29309;42.682;23.372;2022-12-18T13:38:34;96512.00;;;5.14;67.31
43711;BME280;29309;42.682;23.372;2022-12-18T13:41:02;96513.69;;;5.17;67.31
43711;BME280;29309;42.682;23.372;2022-12-18T13:46:27;96510.00;;;5.22;67.32
43711;BME280;29309;42.682;23.372;2022-12-18T13:49:05;96530.19;;;5.25;66.93
43711;BME280;29309;42.682;23.372;2022-12-18T13:51:48;96537.34;;;5.28;66.95
43711;BME280;29309;42.682;23.372;2022-12-18T13:54:18;96539.19;;;5.33;66.10
43711;BME280;29309;42.682;23.372;2022-12-18T13:56:46;96536.63;;;5.27;66.43
43711;BME280;29309;42.682;23.372;2022-12-18T14:04:37;96537.72;;;5.17;67.06
43711;BME280;29309;42.682;23.372;2022-12-18T14:09:33;96544.50;;;5.16;66.75
43711;BME280;29309;42.682;23.372;2022-12-18T14:12:00;96542.28;;;5.14;67.55
43711;BME280;29309;42.682;23.372;2022-12-18T14:14:47;96541.56;;;5.14;67.19
43711;BME280;29309;42.682;23.372;2022-12-18T14:17:14;96541.00;;;5.15;67.72
43711;BME280;29309;42.682;23.372;2022-12-18T14:19:48;96543.97;;;5.17;67.43
43711;BME280;29309;42.682;23.372;2022-12-18T14:22:24;96555.31;;;5.14;67.94
43711;BME280;29309;42.682;23.372;2022-12-18T14:27:37;96548.38;;;5.20;66.49
43711;BME280;29309;42.682;23.372;2022-12-18T14:33:03;96556.44;;;5.18;65.58
43711;BME280;29309;42.682;23.372;2022-12-18T14:35:28;96563.22;;;5.17;65.65
43711;BME280;29309;42.682;23.372;2022-12-18T14:38:14;96559.19;;;5.18;64.77
43711;BME280;29309;42.682;23.372;2022-12-18T14:40:43;96561.19;;;5.10;64.84
43711;BME280;29309;42.682;23.372;2022-12-18T14:43:10;96559.72;;;5.09;65.42
43711;BME280;29309;42.682;23.372;2022-12-18T14:45:41;96547.06;;;5.06;65.44
43711;BME280;29309;42.682;23.372;2022-12-18T14:51:00;96553.28;;;5.07;65.55
43711;BME280;29309;42.682;23.372;2022-12-18T14:53:54;96552.75;;;5.08;65.40
43711;BME280;29309;42.682;23.372;2022-12-18T14:56:47;96562.28;;;5.07;64.92
43711;BME280;29309;42.682;23.372;2022-12-18T14:59:19;96555.69;;;5.03;65.08
43711;BME280;29309;42.682;23.372;2022-12-18T15:01:47;96562.84;;;4.98;64.26
43711;BME280;29309;42.682;23.372;2022-12-18T15:04:36;96565.38;;;4.96;64.26
43711;BME280;29309;42.682;23.372;2022-12-18T15:07:14;96566.69;;;4.95;63.61
43711;BME280;29309;42.682;23.372;2022-12-18T15:09:43;96564.09;;;4.89;63.57
43711;BME280;29309;42.682;23.372;2022-12-18T15:12:28;96565.94;;;4.87;63.15
43711;BME280;29309;42.682;23.372;2022-12-18T15:18:17;96573.03;;;4.75;63.25
43711;BME280;29309;42.682;23.372;2022-12-18T15:20:45;96569.56;;;4.74;62.73
43711;BME280;29309;42.682;23.372;2022-12-18T15:26:11;96580.03;;;4.76;61.84